This is the latest recevied weather packets stored in our database for station/object PA0HHN. If no packets are shown the sender has not sent any weather packets the latest 10 day(s).
| Time | Temp. | Humidity | Pressure | Rain* | Wind** | Luminosity | Snow |
|---|---|---|---|---|---|---|---|
| 1777896000 | 18.89° C | 74% | 1007.1 hPa | - | - | - | - |
| 1777895100 | 18.89° C | 73% | 1007.4 hPa | - | - | - | - |
| 1777894202 | 20° C | 73% | 1007.1 hPa | - | - | - | - |
| 1777893300 | 18.89° C | 73% | 1007.2 hPa | - | - | - | - |
| 1777892401 | 18.89° C | 77% | 1007.5 hPa | - | - | - | - |
| 1777891501 | 17.78° C | 82% | 1007.5 hPa | - | - | - | - |
| 1777889702 | 17.22° C | 85% | 1007.8 hPa | - | - | - | - |
| 1777885200 | 15° C | 94% | 1007.7 hPa | - | - | - | - |
| 1777884302 | 15° C | 99% | 1007.5 hPa | - | - | - | - |
| 1777883400 | 13.89° C | 99% | 1007.3 hPa | - | - | - | - |
| 1777882501 | 13.89° C | 99% | 1007.4 hPa | - | - | - | - |
| 1777881602 | 13.89° C | 99% | 1007.2 hPa | - | - | - | - |
| 1777880702 | 12.78° C | 99% | 1007 hPa | - | - | - | - |
| 1777879802 | 13.89° C | 99% | 1007.2 hPa | - | - | - | - |
| 1777878902 | 12.78° C | 99% | 1007.2 hPa | - | - | - | - |
| 1777878000 | 12.78° C | 99% | 1006.9 hPa | - | - | - | - |
| 1777877102 | 12.78° C | 99% | 1006.8 hPa | - | - | - | - |
| 1777876200 | 12.78° C | 99% | 1006.7 hPa | - | - | - | - |
| 1777869900 | 12.78° C | 99% | 1006.4 hPa | - | - | - | - |
| 1777866300 | 12.78° C | 99% | 1006.3 hPa | - | - | - | - |
| 1777864500 | 12.78° C | 99% | 1006.1 hPa | - | - | - | - |
| 1777863602 | 12.78° C | 99% | 1006 hPa | - | - | - | - |
| 1777862700 | 12.78° C | 99% | 1005.9 hPa | - | - | - | - |
| 1777861803 | 12.78° C | 99% | 1005.7 hPa | - | - | - | - |
| 1777860901 | 12.78° C | 99% | 1005.8 hPa | - | - | - | - |
* Rain since midnight (hover to see other rain measurements)
** Current wind speed in m/s (hover to see current wind gust speed)